Time;durP1;ratioP1;P1;durP2;ratioP2;P2;SDS_P1;SDS_P2;PMS_P1;PMS_P2;Temp;Humidity;BMP_temperature;BMP_pressure;BME280_temperature;BME280_humidity;BME280_pressure;Samples;Min_cycle;Max_cycle;Signal;HPM_P1;HPM_P2
2020/12/20 00:00:42;;;;;;;3.80;3.20;;;13.80;74.70;;;;;;6274026;22;20000;-73
2020/12/20 00:03:09;;;;;;;4.05;3.10;;;13.70;76.00;;;;;;6247705;22;20004;-75
2020/12/20 00:05:36;;;;;;;4.97;3.70;;;13.90;76.40;;;;;;6274122;22;20003;-74
2020/12/20 00:08:03;;;;;;;4.97;4.03;;;13.60;76.90;;;;;;6274130;22;20012;-75
2020/12/20 00:10:30;;;;;;;4.10;3.60;;;12.70;81.50;;;;;;6276038;22;19992;-75
2020/12/20 00:12:57;;;;;;;5.72;4.25;;;12.50;83.80;;;;;;6275713;22;20006;-75
2020/12/20 00:15:25;;;;;;;6.32;4.18;;;12.40;85.20;;;;;;6277538;22;20317;-75
2020/12/20 00:17:52;;;;;;;4.75;4.28;;;11.90;88.40;;;;;;6278147;22;20002;-74
2020/12/20 00:20:19;;;;;;;7.40;4.90;;;12.20;88.80;;;;;;6274352;22;20007;-74
2020/12/20 00:22:47;;;;;;;5.15;4.53;;;11.50;90.50;;;;;;6274185;22;20004;-74
2020/12/20 00:25:14;;;;;;;5.65;4.45;;;11.40;91.40;;;;;;6277725;22;19996;-74
2020/12/20 00:27:42;;;;;;;7.20;5.18;;;11.20;91.90;;;;;;6276101;22;20035;-73
2020/12/20 00:30:09;;;;;;;6.03;5.32;;;10.90;93.20;;;;;;6277326;22;19992;-74
2020/12/20 00:32:36;;;;;;;7.00;4.95;;;10.80;93.70;;;;;;6276558;22;19995;-75
2020/12/20 00:35:05;;;;;;;6.70;4.90;;;10.90;93.90;;;;;;6276757;22;19991;-76
2020/12/20 00:37:33;;;;;;;5.70;4.60;;;10.70;94.40;;;;;;6276257;22;19999;-74
2020/12/20 00:40:00;;;;;;;6.70;5.55;;;10.60;95.20;;;;;;6278465;22;19999;-76
2020/12/20 00:42:27;;;;;;;6.80;5.40;;;10.30;95.80;;;;;;6278017;22;20047;-75
2020/12/20 00:44:54;;;;;;;8.05;5.38;;;10.30;96.40;;;;;;6274379;22;20004;-75
2020/12/20 00:47:20;;;;;;;7.32;5.63;;;10.20;96.70;;;;;;6277596;22;19991;-75
2020/12/20 00:49:47;;;;;;;6.05;4.25;;;10.20;96.80;;;;;;6277818;22;20004;-74
2020/12/20 00:52:17;;;;;;;6.63;5.18;;;10.20;96.80;;;;;;6252018;22;20290;-75
2020/12/20 00:54:44;;;;;;;5.13;4.63;;;10.20;96.90;;;;;;6279396;22;20323;-75
2020/12/20 00:57:11;;;;;;;5.03;4.50;;;10.10;97.10;;;;;;6280349;22;19992;-73
2020/12/20 00:59:38;;;;;;;6.25;4.32;;;10.00;96.90;;;;;;6277276;22;20003;-76
2020/12/20 01:02:05;;;;;;;6.70;4.53;;;10.10;96.90;;;;;;6276967;22;19996;-74
2020/12/20 01:04:32;;;;;;;7.35;3.10;;;10.10;96.90;;;;;;6273993;22;20011;-74
2020/12/20 01:06:59;;;;;;;3.47;3.08;;;10.00;95.70;;;;;;6274502;22;20000;-74
2020/12/20 01:09:27;;;;;;;4.45;3.25;;;10.00;95.90;;;;;;6274232;22;20023;-73
2020/12/20 01:11:57;;;;;;;4.07;3.47;;;10.00;96.10;;;;;;6275595;22;19996;-73
2020/12/20 01:14:24;;;;;;;6.30;3.92;;;9.90;96.80;;;;;;6283131;22;19995;-75
2020/12/20 01:16:51;;;;;;;7.10;4.60;;;9.80;97.00;;;;;;6279998;22;20417;-75
2020/12/20 01:19:18;;;;;;;5.38;4.53;;;9.70;97.40;;;;;;6276427;22;19996;-75
2020/12/20 01:21:45;;;;;;;7.43;4.88;;;9.70;97.70;;;;;;6275953;22;19999;-77
2020/12/20 01:24:12;;;;;;;5.63;4.22;;;9.60;97.70;;;;;;6275808;22;19995;-76
2020/12/20 01:26:39;;;;;;;4.07;3.63;;;9.60;97.50;;;;;;6247372;22;20337;-75
2020/12/20 01:29:06;;;;;;;4.70;3.40;;;9.70;96.90;;;;;;6277241;22;20008;-79
2020/12/20 01:31:33;;;;;;;4.45;3.40;;;9.70;96.00;;;;;;6278732;22;19992;-77
2020/12/20 01:34:00;;;;;;;4.22;3.50;;;9.80;96.30;;;;;;6279973;22;20004;-75
2020/12/20 01:36:29;;;;;;;3.17;2.55;;;9.80;95.80;;;;;;6274487;22;20333;-77
2020/12/20 01:38:56;;;;;;;3.42;2.50;;;9.80;95.10;;;;;;6274757;22;20007;-76
2020/12/20 01:41:23;;;;;;;3.58;2.53;;;9.80;95.40;;;;;;6277349;22;20003;-79
2020/12/20 01:43:54;;;;;;;2.50;2.30;;;9.80;95.40;;;;;;6276592;22;20011;-76
2020/12/20 01:46:22;;;;;;;3.00;2.38;;;9.70;95.50;;;;;;6276097;22;19992;-76
2020/12/20 01:48:52;;;;;;;3.58;2.40;;;9.80;95.40;;;;;;6274078;22;20012;-76
2020/12/20 01:51:20;;;;;;;4.32;2.40;;;9.70;95.40;;;;;;6278530;22;20329;-76
2020/12/20 01:53:47;;;;;;;3.17;2.17;;;9.70;95.50;;;;;;6276644;22;20046;-76
2020/12/20 01:56:14;;;;;;;2.97;2.22;;;9.70;95.30;;;;;;6273606;22;20440;-76
2020/12/20 01:58:45;;;;;;;2.67;2.22;;;9.70;95.00;;;;;;6274348;22;20004;-76
2020/12/20 02:01:12;;;;;;;2.80;2.30;;;9.70;94.70;;;;;;6277255;22;19992;-75
2020/12/20 02:03:39;;;;;;;2.33;1.88;;;9.80;94.50;;;;;;6274619;22;20240;-76
2020/12/20 02:06:07;;;;;;;2.72;1.70;;;9.80;94.60;;;;;;6283317;22;19996;-76
2020/12/20 02:08:35;;;;;;;1.88;1.52;;;9.70;94.70;;;;;;6279208;22;20015;-76
2020/12/20 02:11:22;;;;;;;2.47;2.05;;;9.80;94.20;;;;;;6253312;22;20008;-77
2020/12/20 02:13:51;;;;;;;2.33;1.70;;;9.70;94.70;;;;;;6279469;22;20440;-77
2020/12/20 02:16:20;;;;;;;2.67;2.10;;;9.70;94.40;;;;;;6274192;22;20036;-77
2020/12/20 02:18:48;;;;;;;1.92;1.33;;;9.60;94.60;;;;;;6277754;22;19992;-76
2020/12/20 02:21:19;;;;;;;1.77;1.55;;;9.60;94.20;;;;;;6275097;22;20019;-75
2020/12/20 02:23:50;;;;;;;2.10;1.90;;;9.70;94.30;;;;;;6275002;22;20457;-76
2020/12/20 02:26:22;;;;;;;2.72;1.67;;;9.70;94.40;;;;;;6275458;22;20002;-75
2020/12/20 02:28:52;;;;;;;2.40;2.08;;;9.60;95.00;;;;;;6275900;22;20019;-77
2020/12/20 02:31:21;;;;;;;2.78;2.10;;;9.60;95.20;;;;;;6282061;22;19992;-77
2020/12/20 02:33:48;;;;;;;2.80;2.35;;;9.60;95.50;;;;;;6279375;22;19999;-76
2020/12/20 02:36:15;;;;;;;2.65;1.90;;;9.60;95.60;;;;;;6281082;22;19999;-76
2020/12/20 02:38:42;;;;;;;3.00;2.00;;;9.70;95.00;;;;;;6273095;22;20333;-79
2020/12/20 02:41:09;;;;;;;8.85;4.82;;;9.70;94.80;;;;;;6282575;22;19992;-77
2020/12/20 02:43:36;;;;;;;3.42;2.00;;;9.70;95.30;;;;;;6278059;22;20000;-75
2020/12/20 02:46:03;;;;;;;3.83;3.40;;;9.60;95.00;;;;;;6278274;22;20015;-78
2020/12/20 02:48:30;;;;;;;7.35;6.65;;;9.60;95.00;;;;;;6248150;22;20019;-76
2020/12/20 02:50:57;;;;;;;4.22;3.83;;;9.50;95.40;;;;;;6274899;22;19996;-76
2020/12/20 02:53:24;;;;;;;4.75;3.80;;;9.40;95.90;;;;;;6278154;22;20008;-77
2020/12/20 02:55:52;;;;;;;3.95;3.00;;;9.30;95.90;;;;;;6275122;22;20007;-76
2020/12/20 02:58:18;;;;;;;5.72;3.42;;;9.30;95.80;;;;;;6278059;22;20002;-76
2020/12/20 03:00:45;;;;;;;3.28;2.40;;;9.20;96.10;;;;;;6279313;22;19996;-77
2020/12/20 03:03:12;;;;;;;9.98;6.60;;;9.10;96.30;;;;;;6249983;22;20000;-77
2020/12/20 03:05:40;;;;;;;8.68;4.85;;;9.10;96.30;;;;;;6280262;22;20011;-77
2020/12/20 03:08:06;;;;;;;20.02;9.48;;;9.00;96.40;;;;;;6283050;22;20317;-77
2020/12/20 03:10:33;;;;;;;13.13;8.48;;;9.00;96.50;;;;;;6277723;22;20003;-77
2020/12/20 03:13:00;;;;;;;4.80;3.25;;;8.90;96.70;;;;;;6248068;22;19996;-77
2020/12/20 03:15:27;;;;;;;17.45;11.07;;;8.90;97.00;;;;;;6275846;22;19995;-78
2020/12/20 03:17:54;;;;;;;10.23;5.13;;;8.80;97.30;;;;;;6275262;22;20007;-77
2020/12/20 03:20:22;;;;;;;5.78;2.60;;;8.80;97.30;;;;;;6277345;22;20007;-77
2020/12/20 03:22:49;;;;;;;3.88;2.65;;;8.70;97.40;;;;;;6275067;22;20003;-77
2020/12/20 03:25:16;;;;;;;8.15;5.07;;;8.70;97.80;;;;;;6281589;22;20003;-76
2020/12/20 03:27:43;;;;;;;7.75;4.60;;;8.70;97.70;;;;;;6280414;22;19995;-77
2020/12/20 03:30:10;;;;;;;6.93;4.35;;;8.60;97.80;;;;;;6274647;22;20004;-77
2020/12/20 03:32:36;;;;;;;6.05;2.53;;;8.60;98.30;;;;;;6275208;22;20421;-77
2020/12/20 03:35:04;;;;;;;3.42;1.80;;;8.60;97.90;;;;;;6277852;22;20450;-77
2020/12/20 03:37:30;;;;;;;7.25;4.05;;;8.60;97.80;;;;;;6277847;22;20003;-78
2020/12/20 03:39:57;;;;;;;2.70;2.00;;;8.60;98.00;;;;;;6275719;22;20006;-77
2020/12/20 03:42:24;;;;;;;6.72;2.38;;;8.60;98.30;;;;;;6281129;22;20321;-76
2020/12/20 03:44:51;;;;;;;8.68;5.25;;;8.60;98.00;;;;;;6278705;22;19992;-75
2020/12/20 03:47:18;;;;;;;3.17;2.40;;;8.60;98.00;;;;;;6274753;22;20007;-76
2020/12/20 03:49:45;;;;;;;6.18;2.58;;;8.70;98.50;;;;;;6275399;22;20014;-76
2020/12/20 03:52:12;;;;;;;6.93;3.92;;;8.70;98.20;;;;;;6278496;22;19992;-75
2020/12/20 03:54:39;;;;;;;4.25;2.63;;;8.70;98.20;;;;;;6277339;22;20007;-79
2020/12/20 03:57:07;;;;;;;5.32;3.08;;;8.80;98.00;;;;;;6276840;22;20003;-74
2020/12/20 03:59:39;;;;;;;3.25;2.70;;;8.70;98.30;;;;;;6274321;22;20428;-75
2020/12/20 04:02:06;;;;;;;4.15;2.17;;;8.70;98.60;;;;;;6277485;22;20007;-74
2020/12/20 04:04:33;;;;;;;4.03;2.70;;;8.60;98.80;;;;;;6281081;22;19995;-74
2020/12/20 04:07:00;;;;;;;5.75;2.70;;;8.60;98.70;;;;;;6278142;22;19995;-74
2020/12/20 04:09:27;;;;;;;4.00;2.47;;;8.60;99.10;;;;;;6277610;22;20008;-74
2020/12/20 04:11:54;;;;;;;6.35;3.63;;;8.60;99.30;;;;;;6276897;22;20317;-74
2020/12/20 04:14:21;;;;;;;5.00;2.90;;;8.80;99.20;;;;;;6274303;22;20025;-75
2020/12/20 04:16:48;;;;;;;4.63;3.72;;;8.80;99.00;;;;;;6276607;22;19996;-75
2020/12/20 04:19:15;;;;;;;11.38;3.30;;;9.00;98.70;;;;;;6279492;22;20004;-75
2020/12/20 04:21:42;;;;;;;5.97;3.50;;;9.00;98.70;;;;;;6279652;22;20007;-75
2020/12/20 04:24:09;;;;;;;6.53;3.22;;;8.90;99.00;;;;;;6223768;22;20000;-75
2020/12/20 04:26:36;;;;;;;3.90;2.80;;;8.80;99.10;;;;;;6276143;22;20000;-74
2020/12/20 04:29:02;;;;;;;5.15;3.92;;;8.80;99.30;;;;;;6273705;22;20011;-74
2020/12/20 04:31:29;;;;;;;6.07;4.22;;;8.80;99.60;;;;;;6274329;22;19995;-75
2020/12/20 04:33:56;;;;;;;7.68;4.88;;;8.80;99.60;;;;;;6276941;22;20019;-75
2020/12/20 04:36:23;;;;;;;6.30;5.25;;;9.00;99.60;;;;;;6273810;22;20302;-75
2020/12/20 04:38:50;;;;;;;6.85;5.20;;;9.10;99.60;;;;;;6277940;22;20460;-75
2020/12/20 04:41:21;;;;;;;5.20;4.57;;;9.20;99.50;;;;;;6277947;22;19996;-75
2020/12/20 04:43:48;;;;;;;;;;;9.30;99.30;;;;;;6279935;22;20355;-73
2020/12/20 04:46:18;;;;;;;7.93;5.07;;;9.30;99.30;;;;;;6273847;22;19918;-77
2020/12/20 04:48:45;;;;;;;9.15;5.53;;;9.30;99.10;;;;;;6276892;22;19999;-75
2020/12/20 04:51:13;;;;;;;6.03;4.72;;;9.40;98.80;;;;;;6247490;22;20010;-75
2020/12/20 04:53:40;;;;;;;5.78;5.00;;;9.30;99.00;;;;;;6275700;22;19996;-75
2020/12/20 04:56:09;;;;;;;9.25;5.15;;;9.20;99.10;;;;;;6275353;22;20003;-74
2020/12/20 04:58:38;;;;;;;6.03;5.15;;;9.10;99.50;;;;;;6273435;22;20409;-75
2020/12/20 05:01:07;;;;;;;9.07;5.07;;;9.10;99.50;;;;;;6276358;22;19999;-74
2020/12/20 05:03:34;;;;;;;7.90;5.45;;;9.00;99.90;;;;;;6275349;22;19996;-75
2020/12/20 05:06:01;;;;;;;7.13;5.30;;;9.00;99.90;;;;;;6275262;22;19999;-74
2020/12/20 05:08:28;;;;;;;8.57;6.00;;;9.10;99.80;;;;;;6272425;22;20016;-74
2020/12/20 05:10:55;;;;;;;6.18;4.63;;;9.10;99.70;;;;;;6273492;22;20051;-74
2020/12/20 05:13:28;;;;;;;8.48;5.60;;;9.10;99.60;;;;;;6276325;22;20002;-74
2020/12/20 05:15:55;;;;;;;8.63;5.35;;;9.20;99.20;;;;;;6275603;22;19996;-74
2020/12/20 05:18:22;;;;;;;6.97;5.15;;;9.20;99.20;;;;;;6273196;22;20000;-75
2020/12/20 05:20:49;;;;;;;6.32;5.05;;;9.10;99.40;;;;;;6246614;22;20342;-74
2020/12/20 05:23:17;;;;;;;7.75;4.95;;;9.10;99.30;;;;;;6272676;22;20425;-74
2020/12/20 05:25:44;;;;;;;6.72;4.95;;;9.10;99.40;;;;;;6276019;22;19991;-76
2020/12/20 05:28:14;;;;;;;5.60;4.88;;;9.10;99.30;;;;;;6273160;22;20004;-73
2020/12/20 05:30:43;;;;;;;6.10;4.95;;;9.20;99.10;;;;;;6273458;22;20011;-74
2020/12/20 05:33:23;;;;;;;6.00;5.07;;;9.20;99.10;;;;;;6277457;22;20440;-73
2020/12/20 05:36:06;;;;;;;6.15;4.80;;;9.10;99.10;;;;;;6279157;22;20030;-74
2020/12/20 05:38:34;;;;;;;7.78;5.07;;;9.10;99.20;;;;;;6277567;22;20087;-75
2020/12/20 05:41:02;;;;;;;6.35;4.78;;;9.20;99.00;;;;;;6249629;22;19991;-74
2020/12/20 05:43:30;;;;;;;8.57;5.82;;;9.10;99.00;;;;;;6277522;22;20002;-74
2020/12/20 05:45:58;;;;;;;6.53;4.65;;;9.00;99.30;;;;;;6276925;22;19995;-74
2020/12/20 05:48:34;;;;;;;7.07;4.57;;;9.00;99.10;;;;;;6275657;22;20298;-74
2020/12/20 05:51:06;;;;;;;5.57;4.55;;;8.90;99.20;;;;;;6278280;22;20000;-74
2020/12/20 05:53:34;;;;;;;4.63;3.42;;;9.00;98.50;;;;;;6276554;22;20007;-75
2020/12/20 05:56:05;;;;;;;6.10;3.88;;;9.10;97.40;;;;;;6279117;22;20584;-75
2020/12/20 05:58:34;;;;;;;5.60;3.90;;;9.00;98.50;;;;;;6275373;22;20015;-75
2020/12/20 06:01:02;;;;;;;4.88;3.50;;;9.00;97.50;;;;;;6279562;22;20486;-75
2020/12/20 06:03:29;;;;;;;7.75;3.20;;;9.10;97.10;;;;;;6276711;22;20003;-75
2020/12/20 06:06:01;;;;;;;5.00;3.58;;;9.10;97.10;;;;;;6276109;22;19995;-75
2020/12/20 06:08:32;;;;;;;5.25;3.90;;;9.20;96.90;;;;;;6278594;22;19992;-75
2020/12/20 06:11:05;;;;;;;7.90;3.95;;;9.20;96.30;;;;;;6277367;22;20000;-75
2020/12/20 06:13:33;;;;;;;4.90;3.70;;;9.30;96.00;;;;;;6279616;22;20416;-74
2020/12/20 06:16:08;;;;;;;5.82;3.55;;;9.40;96.00;;;;;;6275659;22;20448;-75
2020/12/20 06:18:51;;;;;;;5.68;4.20;;;9.30;95.80;;;;;;6274656;22;20432;-74
2020/12/20 06:21:40;;;;;;;5.35;3.75;;;9.30;96.00;;;;;;6275181;22;20465;-74
2020/12/20 06:24:13;;;;;;;7.88;4.32;;;9.30;95.90;;;;;;6277236;22;20000;-74
2020/12/20 06:26:45;;;;;;;3.90;3.47;;;9.30;95.90;;;;;;6277358;22;19996;-74
2020/12/20 06:29:18;;;;;;;6.57;3.97;;;9.40;95.50;;;;;;6277891;22;20078;-75
2020/12/20 06:31:45;;;;;;;5.80;3.92;;;9.30;95.80;;;;;;6280535;22;20003;-74
2020/12/20 06:34:16;;;;;;;5.45;3.50;;;9.30;95.70;;;;;;6279169;22;20432;-74
2020/12/20 06:36:45;;;;;;;5.88;3.70;;;9.30;95.80;;;;;;6277604;22;19995;-74
2020/12/20 06:39:16;;;;;;;5.97;3.55;;;9.30;95.70;;;;;;6277211;22;20007;-74
2020/12/20 06:41:43;;;;;;;5.68;3.40;;;9.20;95.40;;;;;;6274791;22;20410;-74
2020/12/20 06:44:14;;;;;;;3.97;3.03;;;9.30;95.40;;;;;;6278356;22;20320;-74
2020/12/20 06:46:43;;;;;;;5.47;3.33;;;9.20;95.40;;;;;;6274238;22;20063;-74
2020/12/20 06:49:35;;;;;;;7.35;2.95;;;9.10;95.80;;;;;;6275475;22;20019;-74
2020/12/20 06:52:17;;;;;;;3.92;2.85;;;9.10;95.20;;;;;;6276580;22;19996;-73
2020/12/20 06:55:08;;;;;;;6.88;3.63;;;9.10;95.10;;;;;;6274970;22;20058;-74
2020/12/20 06:57:36;;;;;;;5.70;3.65;;;9.10;94.80;;;;;;6276690;22;20325;-73
2020/12/20 07:00:05;;;;;;;3.67;3.20;;;9.10;95.00;;;;;;6276062;22;20000;-75
2020/12/20 07:02:47;;;;;;;6.45;3.30;;;9.10;95.20;;;;;;6281446;22;20412;-74
2020/12/20 07:05:36;;;;;;;5.47;3.58;;;9.00;95.00;;;;;;6275364;22;20400;-73
2020/12/20 07:08:11;;;;;;;4.35;3.53;;;9.20;95.00;;;;;;6274738;22;20011;-73
2020/12/20 07:10:41;;;;;;;5.40;3.50;;;9.30;94.90;;;;;;6277627;22;20011;-74
2020/12/20 07:13:10;;;;;;;6.28;3.42;;;9.20;94.80;;;;;;6274935;22;20000;-74
2020/12/20 07:15:52;;;;;;;6.32;3.40;;;9.20;94.60;;;;;;6248676;22;19999;-74
2020/12/20 07:18:57;;;;;;;11.60;3.28;;;9.20;94.40;;;;;;6277459;22;20003;-74
2020/12/20 07:21:26;;;;;;;4.82;3.28;;;9.20;94.30;;;;;;6274128;22;20019;-75
2020/12/20 07:24:03;;;;;;;5.22;3.60;;;9.30;94.10;;;;;;6274568;22;20003;-73
2020/12/20 07:26:31;;;;;;;4.93;3.42;;;9.20;94.50;;;;;;6276009;22;20006;-74
2020/12/20 07:29:03;;;;;;;5.82;3.47;;;9.20;94.20;;;;;;6274144;22;20004;-73
2020/12/20 07:31:30;;;;;;;9.13;3.67;;;9.20;94.40;;;;;;6276651;22;20027;-74
2020/12/20 07:33:58;;;;;;;7.63;3.60;;;9.10;94.20;;;;;;6276364;22;20003;-74
2020/12/20 07:36:26;;;;;;;6.15;4.13;;;9.10;94.40;;;;;;6274205;22;20000;-75
2020/12/20 07:38:53;;;;;;;6.85;3.42;;;9.10;94.60;;;;;;6276705;22;20410;-71
2020/12/20 07:41:21;;;;;;;5.93;3.85;;;9.00;95.00;;;;;;6276605;22;20002;-71
2020/12/20 07:43:48;;;;;;;6.43;4.18;;;8.90;94.90;;;;;;6276516;22;20018;-70
2020/12/20 07:46:16;;;;;;;5.70;3.80;;;8.90;94.90;;;;;;6276968;22;20000;-71
2020/12/20 07:48:43;;;;;;;4.25;3.00;;;8.90;94.50;;;;;;6275699;22;20417;-71
2020/12/20 07:51:17;;;;;;;3.70;2.47;;;9.00;94.40;;;;;;6275628;22;20425;-73
2020/12/20 07:53:52;;;;;;;3.45;2.28;;;9.00;93.50;;;;;;6274325;22;20003;-70
2020/12/20 07:56:32;;;;;;;4.65;2.78;;;9.10;93.30;;;;;;6274169;22;20007;-72
2020/12/20 07:59:07;;;;;;;2.38;1.80;;;9.20;92.80;;;;;;6275417;22;19996;-75
2020/12/20 08:01:36;;;;;;;4.05;2.10;;;9.10;93.00;;;;;;6274185;22;20002;-73
2020/12/20 08:04:07;;;;;;;2.15;1.52;;;9.20;92.50;;;;;;6273901;22;20003;-74
2020/12/20 08:06:45;;;;;;;2.60;2.00;;;9.30;92.10;;;;;;6279395;22;19992;-71
2020/12/20 08:09:20;;;;;;;3.13;1.75;;;9.30;92.00;;;;;;6278929;22;20011;-70
2020/12/20 08:11:50;;;;;;;2.60;1.92;;;9.30;91.80;;;;;;6274558;22;19999;-71
2020/12/20 08:14:18;;;;;;;5.45;1.70;;;9.20;91.80;;;;;;6275225;22;20003;-71
2020/12/20 08:16:50;;;;;;;3.08;2.00;;;9.30;91.50;;;;;;6277228;22;19996;-71
2020/12/20 08:19:31;;;;;;;6.55;2.22;;;9.50;91.00;;;;;;6276222;22;20003;-71
2020/12/20 08:22:01;;;;;;;2.88;1.95;;;9.50;90.70;;;;;;6247419;22;20018;-72
2020/12/20 08:24:40;;;;;;;4.57;1.90;;;9.50;91.00;;;;;;6249782;22;20006;-72
2020/12/20 08:27:24;;;;;;;3.33;1.90;;;9.50;90.80;;;;;;6282636;22;20428;-77
2020/12/20 08:29:56;;;;;;;3.70;2.42;;;9.60;90.60;;;;;;6274093;22;20016;-71
2020/12/20 08:32:26;;;;;;;3.63;3.22;;;9.50;90.60;;;;;;6276153;22;20393;-71
2020/12/20 08:34:52;;;;;;;6.90;4.68;;;9.50;91.00;;;;;;6277910;22;20019;-71
2020/12/20 08:37:23;;;;;;;6.68;4.82;;;9.50;91.10;;;;;;6276813;22;20003;-72
2020/12/20 08:39:51;;;;;;;6.45;4.90;;;9.50;91.60;;;;;;6274260;22;20452;-72
2020/12/20 08:42:18;;;;;;;7.35;5.82;;;9.50;92.00;;;;;;6250369;22;19996;-71
2020/12/20 08:44:48;;;;;;;10.05;7.10;;;9.40;92.20;;;;;;6277119;22;19995;-71
2020/12/20 08:47:18;;;;;;;9.90;8.30;;;9.40;92.30;;;;;;6274072;22;20426;-72
2020/12/20 08:49:59;;;;;;;9.95;7.95;;;9.50;92.20;;;;;;6275985;22;20007;-73
2020/12/20 08:52:27;;;;;;;10.13;9.07;;;9.40;92.40;;;;;;6247586;22;20007;-71
2020/12/20 08:54:55;;;;;;;12.25;10.10;;;9.40;92.70;;;;;;6276959;22;20003;-72
2020/12/20 08:57:32;;;;;;;9.70;8.70;;;9.50;92.70;;;;;;6277502;22;20004;-71
2020/12/20 09:00:13;;;;;;;11.57;9.82;;;9.40;93.00;;;;;;6278190;22;19995;-73
2020/12/20 09:02:41;;;;;;;13.07;10.30;;;9.30;93.10;;;;;;6276992;22;20004;-72
2020/12/20 09:05:11;;;;;;;12.73;11.40;;;9.30;93.30;;;;;;6276406;22;19996;-71
2020/12/20 09:07:49;;;;;;;14.60;11.70;;;9.30;93.10;;;;;;6275601;22;19996;-70
2020/12/20 09:10:35;;;;;;;12.90;11.52;;;9.20;93.20;;;;;;6276258;22;20010;-70
2020/12/20 09:13:05;;;;;;;12.63;11.27;;;9.20;93.30;;;;;;6273919;22;20000;-71
2020/12/20 09:15:39;;;;;;;13.15;11.45;;;9.30;93.20;;;;;;6273470;22;20000;-71
2020/12/20 09:18:18;;;;;;;14.10;12.15;;;9.20;93.30;;;;;;6247682;22;20007;-72
2020/12/20 09:20:46;;;;;;;13.50;11.07;;;9.30;93.20;;;;;;6277088;22;20456;-70
2020/12/20 09:23:31;;;;;;;13.30;11.10;;;9.30;93.10;;;;;;6277487;22;20003;-71
2020/12/20 09:26:02;;;;;;;11.70;10.40;;;9.30;93.00;;;;;;6273845;22;20004;-69
2020/12/20 09:28:32;;;;;;;13.10;11.07;;;9.30;93.00;;;;;;6275563;22;20015;-71
2020/12/20 09:31:10;;;;;;;18.95;11.45;;;9.40;92.70;;;;;;6275070;22;20023;-72
2020/12/20 09:33:37;;;;;;;12.82;10.73;;;9.50;92.40;;;;;;6273496;22;20003;-72
2020/12/20 09:36:06;;;;;;;12.23;10.57;;;9.50;92.40;;;;;;6274999;22;20003;-73
2020/12/20 09:38:40;;;;;;;12.02;10.43;;;9.40;92.50;;;;;;6274710;22;20003;-72
2020/12/20 09:41:10;;;;;;;12.50;11.00;;;9.40;92.70;;;;;;6279211;22;19999;-72
2020/12/20 09:43:37;;;;;;;12.95;11.02;;;9.20;93.00;;;;;;6272740;22;20019;-70
2020/12/20 09:46:04;;;;;;;11.90;10.45;;;9.20;93.10;;;;;;6273636;22;20000;-72
2020/12/20 09:48:31;;;;;;;14.77;11.20;;;9.10;93.30;;;;;;6280006;22;20004;-72
2020/12/20 09:50:59;;;;;;;14.35;10.75;;;9.10;93.40;;;;;;6276087;22;20004;-71
2020/12/20 09:53:26;;;;;;;13.90;10.70;;;9.10;93.30;;;;;;6278842;22;20002;-71
2020/12/20 09:55:53;;;;;;;10.82;9.70;;;9.10;93.40;;;;;;6276392;22;20000;-71
2020/12/20 09:58:20;;;;;;;14.48;10.60;;;9.10;93.40;;;;;;6275748;22;20010;-71
2020/12/20 10:00:47;;;;;;;11.68;9.77;;;9.10;93.60;;;;;;6275258;22;19996;-73
2020/12/20 10:03:14;;;;;;;10.77;9.32;;;9.20;93.30;;;;;;6274882;22;20003;-71
2020/12/20 10:05:43;;;;;;;11.13;9.48;;;9.20;93.40;;;;;;6273760;22;20015;-70
2020/12/20 10:08:13;;;;;;;10.60;9.18;;;9.20;93.40;;;;;;6273450;22;20019;-70
2020/12/20 10:10:39;;;;;;;13.27;10.55;;;9.10;93.50;;;;;;6275944;22;20011;-71
2020/12/20 10:13:06;;;;;;;13.38;10.15;;;9.10;93.50;;;;;;6275255;22;19992;-71
2020/12/20 10:15:33;;;;;;;12.85;10.35;;;9.00;93.70;;;;;;6275026;22;19996;-71
2020/12/20 10:18:01;;;;;;;11.48;9.35;;;9.10;93.70;;;;;;6273943;22;20313;-70
2020/12/20 10:20:31;;;;;;;10.88;9.20;;;9.10;93.80;;;;;;6272557;22;20007;-70
2020/12/20 10:23:00;;;;;;;11.02;8.70;;;9.10;93.60;;;;;;6273201;22;20004;-71
2020/12/20 10:25:27;;;;;;;11.82;8.15;;;9.30;93.40;;;;;;6273224;22;20007;-71
2020/12/20 10:27:55;;;;;;;11.10;7.30;;;9.30;93.30;;;;;;6275513;22;20409;-72
2020/12/20 10:30:22;;;;;;;8.90;7.35;;;9.40;93.10;;;;;;6274814;22;20019;-72
2020/12/20 10:32:50;;;;;;;8.43;6.63;;;9.40;93.00;;;;;;6274966;22;20333;-71
2020/12/20 10:35:18;;;;;;;11.10;6.72;;;9.50;93.00;;;;;;6277657;22;20317;-72
2020/12/20 10:37:46;;;;;;;7.72;6.82;;;9.40;93.00;;;;;;6280417;22;19995;-71
2020/12/20 10:40:13;;;;;;;8.23;6.20;;;9.50;93.00;;;;;;6280657;22;19996;-71
2020/12/20 10:42:39;;;;;;;8.98;6.80;;;9.50;93.00;;;;;;6276994;22;20321;-70
2020/12/20 10:45:09;;;;;;;7.43;6.68;;;9.40;93.00;;;;;;6274789;22;20318;-70
2020/12/20 10:47:36;;;;;;;8.43;6.32;;;9.40;92.90;;;;;;6276320;22;20433;-71
2020/12/20 10:50:05;;;;;;;7.82;6.85;;;9.40;93.00;;;;;;6275967;22;20015;-73
2020/12/20 10:52:34;;;;;;;11.68;6.53;;;9.30;93.10;;;;;;6277898;22;20023;-70
2020/12/20 10:55:02;;;;;;;10.15;6.22;;;9.30;93.10;;;;;;6277368;22;19996;-71
2020/12/20 10:57:29;;;;;;;7.28;5.68;;;9.30;93.20;;;;;;6275731;22;20007;-69
2020/12/20 10:59:56;;;;;;;7.55;6.18;;;9.30;93.30;;;;;;6276086;22;20413;-69
2020/12/20 11:02:23;;;;;;;6.18;5.32;;;9.30;93.30;;;;;;6276828;22;20007;-70
2020/12/20 11:04:50;;;;;;;6.40;4.55;;;9.30;93.30;;;;;;6283454;22;19996;-72
2020/12/20 11:07:17;;;;;;;5.85;4.97;;;9.40;93.00;;;;;;6275246;22;20007;-70
2020/12/20 11:09:47;;;;;;;6.25;4.10;;;9.40;93.00;;;;;;6277230;22;20429;-70
2020/12/20 11:12:14;;;;;;;5.47;3.35;;;9.50;92.90;;;;;;6274390;22;20011;-70
2020/12/20 11:14:41;;;;;;;5.50;3.80;;;9.50;92.80;;;;;;6276066;22;19999;-70
2020/12/20 11:17:08;;;;;;;6.03;4.10;;;9.50;92.80;;;;;;6274031;22;20000;-72
2020/12/20 11:19:35;;;;;;;6.63;3.92;;;9.30;93.10;;;;;;6277880;22;20416;-71
2020/12/20 11:22:02;;;;;;;4.47;3.30;;;9.30;93.30;;;;;;6274571;22;20019;-71
2020/12/20 11:24:28;;;;;;;6.15;4.78;;;9.30;93.20;;;;;;6276967;22;19995;-71
2020/12/20 11:26:55;;;;;;;6.55;4.88;;;9.40;93.10;;;;;;6276740;22;20435;-70
2020/12/20 11:29:22;;;;;;;5.30;4.20;;;9.30;93.10;;;;;;6274060;22;20448;-70
2020/12/20 11:31:49;;;;;;;6.22;4.70;;;9.30;93.20;;;;;;6279257;22;20325;-71
2020/12/20 11:34:17;;;;;;;4.70;4.15;;;9.40;92.90;;;;;;6282679;22;19996;-71
2020/12/20 11:36:44;;;;;;;4.15;3.50;;;9.40;92.90;;;;;;6276976;22;19999;-71
2020/12/20 11:39:13;;;;;;;5.38;4.00;;;9.40;92.80;;;;;;6276216;22;19992;-71
2020/12/20 11:41:40;;;;;;;5.70;3.50;;;9.50;92.60;;;;;;6274269;22;20429;-72
2020/12/20 11:44:08;;;;;;;5.18;3.25;;;9.50;92.60;;;;;;6276740;22;19995;-73
2020/12/20 11:46:35;;;;;;;5.38;3.40;;;9.50;92.70;;;;;;6277200;22;20014;-72
2020/12/20 11:49:04;;;;;;;4.78;3.22;;;9.50;92.70;;;;;;6277362;22;19992;-73
2020/12/20 11:51:34;;;;;;;3.95;3.38;;;9.50;92.50;;;;;;6274135;22;20022;-73
2020/12/20 11:54:01;;;;;;;3.83;2.70;;;9.60;92.40;;;;;;6275829;22;19999;-72
2020/12/20 11:56:29;;;;;;;2.85;2.20;;;9.60;92.30;;;;;;6276127;22;20003;-72
2020/12/20 11:58:56;;;;;;;3.13;2.50;;;9.60;92.30;;;;;;6281640;22;19992;-72
2020/12/20 12:01:28;;;;;;;4.30;2.42;;;9.60;92.30;;;;;;6276044;22;20507;-71
2020/12/20 12:03:55;;;;;;;3.65;2.33;;;9.60;92.10;;;;;;6277239;22;20000;-69
2020/12/20 12:06:22;;;;;;;3.38;2.70;;;9.70;91.90;;;;;;6279246;22;19996;-69
2020/12/20 12:08:49;;;;;;;4.20;2.80;;;9.60;92.00;;;;;;6276419;22;20002;-70
2020/12/20 12:11:20;;;;;;;3.20;2.33;;;9.60;92.10;;;;;;6274780;22;20019;-70
2020/12/20 12:13:48;;;;;;;3.00;2.42;;;9.50;92.30;;;;;;6276944;22;20003;-71
2020/12/20 12:16:17;;;;;;;4.05;2.55;;;9.60;92.20;;;;;;6276583;22;20459;-70
2020/12/20 12:18:44;;;;;;;4.53;2.35;;;9.50;92.30;;;;;;6276144;22;19996;-70
2020/12/20 12:21:14;;;;;;;2.70;2.08;;;9.50;92.60;;;;;;6274007;22;20020;-71
2020/12/20 12:23:42;;;;;;;4.40;2.05;;;9.50;92.40;;;;;;6279086;22;20316;-68
2020/12/20 12:26:09;;;;;;;4.93;2.30;;;9.50;92.40;;;;;;6250359;22;19996;-70
2020/12/20 12:28:36;;;;;;;3.97;2.20;;;9.60;92.50;;;;;;6274522;22;20289;-71
2020/12/20 12:31:04;;;;;;;3.25;2.05;;;9.50;92.50;;;;;;6275334;22;20011;-69
2020/12/20 12:33:30;;;;;;;2.70;2.00;;;9.40;92.70;;;;;;6277344;22;19996;-69
2020/12/20 12:35:58;;;;;;;3.53;1.80;;;9.40;92.60;;;;;;6274239;22;20328;-70
2020/12/20 12:38:25;;;;;;;3.67;2.05;;;9.40;92.60;;;;;;6274652;22;19999;-70
2020/12/20 12:40:52;;;;;;;2.58;1.90;;;9.40;92.60;;;;;;6275560;22;20274;-70
2020/12/20 12:43:19;;;;;;;2.55;1.50;;;9.40;92.80;;;;;;6276074;22;19996;-70
2020/12/20 12:45:46;;;;;;;2.78;1.75;;;9.30;92.90;;;;;;6278267;22;20006;-70
2020/12/20 12:48:13;;;;;;;2.28;1.60;;;9.30;93.00;;;;;;6276378;22;20003;-70
2020/12/20 12:50:39;;;;;;;3.83;1.73;;;9.30;93.00;;;;;;6273360;22;20014;-68
2020/12/20 12:53:06;;;;;;;2.65;1.80;;;9.30;92.80;;;;;;6275872;22;19999;-68
2020/12/20 12:55:33;;;;;;;2.47;1.75;;;9.30;92.80;;;;;;6274741;22;19996;-70
2020/12/20 12:58:00;;;;;;;2.65;1.80;;;9.20;92.90;;;;;;6276949;22;20000;-72
2020/12/20 13:00:27;;;;;;;2.17;1.60;;;9.30;93.00;;;;;;6277068;22;19995;-72
2020/12/20 13:02:54;;;;;;;2.50;1.58;;;9.20;93.10;;;;;;6277840;22;19992;-73